Time;durP1;ratioP1;P1;durP2;ratioP2;P2;SDS_P1;SDS_P2;PMS_P1;PMS_P2;Temp;Humidity;BMP_temperature;BMP_pressure;BME280_temperature;BME280_humidity;BME280_pressure;Samples;Min_cycle;Max_cycle;Signal;HPM_P1;HPM_P2
2022/06/13 00:01:52;;;;;;;4.30;3.90;;;18.40;99.90;;;;;;5080135;28;20043;-36
2022/06/13 00:04:17;;;;;;;6.05;4.40;;;18.50;99.90;;;;;;5078985;28;20031;-36
2022/06/13 00:06:43;;;;;;;9.30;4.45;;;18.40;99.90;;;;;;5079733;28;20604;-36
2022/06/13 00:09:09;;;;;;;5.30;4.55;;;18.60;99.90;;;;;;5080059;28;20023;-36
2022/06/13 00:11:36;;;;;;;6.72;5.07;;;18.60;99.90;;;;;;5074631;28;20101;-37
2022/06/13 00:14:02;;;;;;;4.78;4.32;;;18.30;99.90;;;;;;5080195;28;20469;-38
2022/06/13 00:16:28;;;;;;;4.88;4.38;;;18.20;99.90;;;;;;5078968;28;20039;-36
2022/06/13 00:18:55;;;;;;;4.95;4.15;;;18.40;99.90;;;;;;5079549;28;20033;-39
2022/06/13 00:21:25;;;;;;;5.07;4.43;;;18.50;99.90;;;;;;5081460;28;20039;-37
2022/06/13 00:23:51;;;;;;;5.60;4.88;;;18.60;99.90;;;;;;5082154;28;20492;-39
2022/06/13 00:26:18;;;;;;;5.68;4.80;;;18.50;99.90;;;;;;5081940;28;20112;-39
2022/06/13 00:28:44;;;;;;;5.00;4.33;;;18.30;99.90;;;;;;5083606;28;20122;-39
2022/06/13 00:31:09;;;;;;;7.70;4.65;;;18.30;99.90;;;;;;5081003;27;20552;-38
2022/06/13 00:33:35;;;;;;;4.75;4.28;;;18.20;99.90;;;;;;5081362;28;20028;-39
2022/06/13 00:36:00;;;;;;;7.88;5.22;;;17.90;99.90;;;;;;5082924;28;20040;-38
2022/06/13 00:38:26;;;;;;;7.65;4.65;;;18.00;99.90;;;;;;5084945;28;20063;-39
2022/06/13 00:40:52;;;;;;;5.95;4.78;;;18.00;99.90;;;;;;5081686;28;20139;-39
2022/06/13 00:43:17;;;;;;;5.63;4.65;;;18.10;99.90;;;;;;5081546;28;20748;-39
2022/06/13 00:45:43;;;;;;;5.78;4.60;;;18.20;99.90;;;;;;5081026;28;20085;-38
2022/06/13 00:48:12;;;;;;;5.18;4.68;;;18.30;99.90;;;;;;5077677;28;20029;-37
2022/06/13 00:50:48;;;;;;;6.20;4.95;;;18.30;99.90;;;;;;5077090;28;20035;-36
2022/06/13 00:53:22;;;;;;;6.15;4.80;;;18.40;99.90;;;;;;5082613;28;20040;-39
2022/06/13 00:56:00;;;;;;;6.28;4.80;;;18.50;99.90;;;;;;5076866;28;21079;-39
2022/06/13 00:58:29;;;;;;;6.63;5.13;;;18.50;99.90;;;;;;5089734;28;20047;-37
2022/06/13 01:00:57;;;;;;;9.75;4.75;;;18.50;99.90;;;;;;5085058;27;20086;-37
2022/06/13 01:03:25;;;;;;;6.90;5.00;;;18.50;99.90;;;;;;5086165;28;20111;-39
2022/06/13 01:05:52;;;;;;;7.45;5.22;;;18.60;99.90;;;;;;5085554;28;20031;-39
2022/06/13 01:08:20;;;;;;;4.95;4.40;;;18.40;99.90;;;;;;5087499;28;20087;-38
2022/06/13 01:13:57;;;;;;;8.13;5.50;;;18.30;99.90;;;;;;5091376;28;20078;-37
2022/06/13 01:16:41;;;;;;;7.03;4.90;;;18.10;99.90;;;;;;5083618;28;20028;-37
2022/06/13 01:19:29;;;;;;;6.53;5.13;;;18.10;99.90;;;;;;5077225;28;20508;-37
2022/06/13 01:22:16;;;;;;;6.55;5.15;;;18.10;99.90;;;;;;5080416;28;20036;-37
2022/06/13 01:25:10;;;;;;;6.30;4.72;;;17.90;99.90;;;;;;5086832;28;20120;-37
2022/06/13 01:28:00;;;;;;;6.55;4.97;;;17.90;99.90;;;;;;5085308;28;20035;-36
2022/06/13 01:30:34;;;;;;;6.75;4.40;;;17.90;99.90;;;;;;5086281;27;20029;-38
2022/06/13 01:33:09;;;;;;;6.85;4.85;;;17.90;99.90;;;;;;5082687;28;20032;-39
2022/06/13 01:36:07;;;;;;;5.60;4.57;;;17.80;99.90;;;;;;5089365;28;20575;-39
2022/06/13 01:38:32;;;;;;;;;;;17.70;99.90;;;;;;5084676;28;20096;-39
2022/06/13 01:41:19;;;;;;;4.47;4.07;;;17.70;99.90;;;;;;5082164;28;19951;-38
2022/06/13 01:44:03;;;;;;;5.75;4.57;;;17.70;99.90;;;;;;5083357;28;20542;-38
2022/06/13 01:46:35;;;;;;;4.63;4.03;;;17.80;99.90;;;;;;5084918;28;20028;-36
2022/06/13 01:50:03;;;;;;;4.72;3.92;;;18.00;99.90;;;;;;5084575;28;20028;-36
2022/06/13 01:52:40;;;;;;;;;;;18.00;99.90;;;;;;5057229;28;20499;-36
2022/06/13 01:55:39;;;;;;;3.90;3.42;;;18.10;99.90;;;;;;5082942;28;19958;-36
2022/06/13 01:58:13;;;;;;;4.25;3.53;;;18.20;99.90;;;;;;5082413;28;20034;-38
2022/06/13 02:00:40;;;;;;;5.13;3.22;;;18.00;99.90;;;;;;5080683;28;20016;-39
2022/06/13 02:03:13;;;;;;;5.30;3.10;;;18.00;99.90;;;;;;5083523;28;20094;-37
2022/06/13 02:06:02;;;;;;;3.28;2.97;;;18.00;99.90;;;;;;5095701;27;20024;-36
2022/06/13 02:08:33;;;;;;;4.93;3.22;;;18.00;99.90;;;;;;5082421;28;20121;-38
2022/06/13 02:11:15;;;;;;;3.40;3.10;;;18.00;99.90;;;;;;5085751;28;22012;-37
2022/06/13 02:13:54;;;;;;;3.22;2.92;;;18.00;99.90;;;;;;5082253;28;20035;-39
2022/06/13 02:16:25;;;;;;;3.92;2.72;;;17.90;99.90;;;;;;5077200;28;20032;-38
2022/06/13 02:19:07;;;;;;;2.90;2.70;;;18.00;99.90;;;;;;5079700;28;20070;-39
2022/06/13 02:21:51;;;;;;;2.67;2.47;;;18.00;99.90;;;;;;5084096;28;20028;-38
2022/06/13 02:24:22;;;;;;;3.60;2.85;;;17.90;99.90;;;;;;5083272;28;20107;-37
2022/06/13 02:26:52;;;;;;;4.32;2.83;;;18.00;99.90;;;;;;5082849;28;20032;-39
2022/06/13 02:29:42;;;;;;;4.95;2.67;;;17.90;99.90;;;;;;5087888;28;20099;-39
2022/06/13 02:32:11;;;;;;;2.53;2.20;;;17.90;99.90;;;;;;5082384;28;20074;-39
2022/06/13 02:34:45;;;;;;;2.60;2.40;;;17.90;99.90;;;;;;5082356;28;20366;-37
2022/06/13 02:37:21;;;;;;;3.50;2.25;;;17.90;99.90;;;;;;5083847;28;20033;-38
2022/06/13 02:40:02;;;;;;;2.22;1.98;;;17.90;99.90;;;;;;5081793;28;20619;-39
2022/06/13 02:42:41;;;;;;;3.08;2.35;;;17.90;99.90;;;;;;5083517;28;20035;-37
2022/06/13 02:45:30;;;;;;;2.72;2.33;;;17.80;99.90;;;;;;5084541;28;20039;-36
2022/06/13 02:48:03;;;;;;;2.33;2.13;;;17.70;99.90;;;;;;5077256;28;20039;-36
2022/06/13 02:50:31;;;;;;;2.80;2.28;;;17.70;99.90;;;;;;5080045;28;20075;-39
2022/06/13 02:53:28;;;;;;;3.80;2.30;;;17.80;99.90;;;;;;5081678;28;20034;-39
2022/06/13 02:56:10;;;;;;;3.30;2.58;;;17.80;99.90;;;;;;5081773;28;20036;-38
2022/06/13 02:58:57;;;;;;;3.08;2.50;;;17.80;99.90;;;;;;5076174;28;20043;-39
2022/06/13 03:01:33;;;;;;;4.50;2.70;;;17.80;99.90;;;;;;5082428;28;20031;-38
2022/06/13 03:04:17;;;;;;;2.70;2.42;;;17.60;99.90;;;;;;5079518;28;20023;-37
2022/06/13 03:07:01;;;;;;;3.40;2.40;;;17.60;99.90;;;;;;5080255;28;20039;-39
2022/06/13 03:09:33;;;;;;;2.92;2.67;;;17.70;99.90;;;;;;5083784;28;20031;-38
2022/06/13 03:12:09;;;;;;;3.33;2.83;;;17.70;99.90;;;;;;5085951;28;20174;-38
2022/06/13 03:14:45;;;;;;;3.95;2.88;;;17.80;99.90;;;;;;5079172;28;20028;-38
2022/06/13 03:17:22;;;;;;;4.25;2.60;;;17.80;99.90;;;;;;5083370;28;20024;-36
2022/06/13 03:20:04;;;;;;;3.97;2.60;;;17.80;99.90;;;;;;5080988;28;20761;-37
2022/06/13 03:22:51;;;;;;;2.38;2.17;;;17.80;99.90;;;;;;5079150;28;20495;-38
2022/06/13 03:25:41;;;;;;;3.33;3.03;;;17.80;99.90;;;;;;5078515;28;20548;-38
2022/06/13 03:28:25;;;;;;;3.75;2.67;;;17.70;99.90;;;;;;5082430;28;20066;-38
2022/06/13 03:30:59;;;;;;;4.22;2.78;;;17.70;99.90;;;;;;5082258;28;20489;-37
2022/06/13 03:33:42;;;;;;;4.43;2.65;;;17.70;99.90;;;;;;5083220;28;20098;-36
2022/06/13 03:36:25;;;;;;;3.55;3.25;;;17.70;99.90;;;;;;5075463;28;20041;-36
2022/06/13 03:38:59;;;;;;;5.95;3.13;;;17.70;99.90;;;;;;5081356;28;20501;-36
2022/06/13 03:41:32;;;;;;;3.50;2.92;;;17.70;99.90;;;;;;5080228;28;20028;-36
2022/06/13 03:44:11;;;;;;;4.40;2.95;;;17.60;99.90;;;;;;5085834;28;20024;-39
2022/06/13 03:46:53;;;;;;;4.43;3.10;;;17.40;99.90;;;;;;5081309;28;20537;-36
2022/06/13 03:49:24;;;;;;;3.40;3.00;;;17.60;99.90;;;;;;5081619;28;20463;-36
2022/06/13 03:51:53;;;;;;;3.35;2.72;;;17.60;99.90;;;;;;5086915;28;20031;-38
2022/06/13 03:54:42;;;;;;;5.45;3.30;;;17.70;99.90;;;;;;5077575;28;20065;-39
2022/06/13 03:57:12;;;;;;;4.95;3.42;;;17.70;99.90;;;;;;5077525;28;20051;-37
2022/06/13 03:59:47;;;;;;;5.05;3.42;;;17.70;99.90;;;;;;5077505;28;20062;-36
2022/06/13 04:02:14;;;;;;;4.72;3.50;;;17.60;99.90;;;;;;5078569;27;20033;-38
2022/06/13 04:04:50;;;;;;;5.07;3.67;;;17.70;99.90;;;;;;5080581;28;20052;-38
2022/06/13 04:07:21;;;;;;;3.85;3.42;;;17.70;99.90;;;;;;5084681;28;20119;-37
2022/06/13 04:10:08;;;;;;;3.63;3.33;;;17.70;99.90;;;;;;5073980;28;20412;-37
2022/06/13 04:12:58;;;;;;;3.92;3.63;;;17.80;99.90;;;;;;5079364;28;20024;-37
2022/06/13 04:15:41;;;;;;;4.60;3.38;;;17.80;99.90;;;;;;5080717;28;20032;-36
2022/06/13 04:18:42;;;;;;;7.07;3.78;;;17.80;99.90;;;;;;5077205;28;20063;-35
2022/06/13 04:21:28;;;;;;;4.43;3.58;;;17.80;99.90;;;;;;5078931;28;20105;-37
2022/06/13 04:24:06;;;;;;;3.75;3.40;;;17.80;99.90;;;;;;5082258;28;20028;-39
2022/06/13 04:26:42;;;;;;;5.82;3.78;;;17.80;99.90;;;;;;5081358;28;20020;-36
2022/06/13 04:29:11;;;;;;;4.65;3.92;;;17.80;99.90;;;;;;5083573;28;20032;-38
2022/06/13 04:31:38;;;;;;;5.75;3.20;;;17.80;99.90;;;;;;5086558;27;20024;-38
2022/06/13 04:34:14;;;;;;;5.45;3.75;;;17.90;99.90;;;;;;5084404;28;20031;-38
2022/06/13 04:36:42;;;;;;;3.47;3.17;;;17.80;99.90;;;;;;5087311;28;20038;-39
2022/06/13 04:39:10;;;;;;;3.63;3.33;;;17.70;99.90;;;;;;5082792;28;20028;-39
2022/06/13 04:41:39;;;;;;;;;;;17.70;99.90;;;;;;5081345;28;20444;-39
2022/06/13 04:44:06;;;;;;;4.35;3.90;;;17.80;99.90;;;;;;5083568;28;19918;-38
2022/06/13 04:46:34;;;;;;;5.03;3.58;;;17.80;99.90;;;;;;5082688;28;20039;-37
2022/06/13 04:49:06;;;;;;;5.90;3.78;;;17.90;99.90;;;;;;5083709;28;20021;-37
2022/06/13 04:51:39;;;;;;;4.90;3.78;;;17.90;99.90;;;;;;5086534;28;20040;-38
2022/06/13 04:54:11;;;;;;;4.32;3.70;;;18.00;99.90;;;;;;5082708;28;20426;-37
2022/06/13 04:56:37;;;;;;;3.53;3.22;;;18.00;99.90;;;;;;5087693;28;20145;-38
2022/06/13 04:59:04;;;;;;;5.82;3.70;;;18.10;99.90;;;;;;5084176;28;20518;-38
2022/06/13 05:01:34;;;;;;;4.45;3.80;;;18.10;99.90;;;;;;5078560;28;20094;-36
2022/06/13 05:04:03;;;;;;;4.63;4.10;;;18.10;99.90;;;;;;5086251;28;20050;-36
2022/06/13 05:06:40;;;;;;;5.97;4.18;;;18.00;99.90;;;;;;5082591;28;20052;-35
2022/06/13 05:09:17;;;;;;;5.22;4.22;;;18.00;99.90;;;;;;5082764;28;20135;-38
2022/06/13 05:11:49;;;;;;;4.30;3.90;;;18.10;99.90;;;;;;5078974;28;20477;-39
2022/06/13 05:14:20;;;;;;;4.72;3.78;;;18.10;99.90;;;;;;5083689;28;20052;-39
2022/06/13 05:17:13;;;;;;;4.70;4.22;;;18.10;99.90;;;;;;5082437;28;20073;-39
2022/06/13 05:19:55;;;;;;;5.03;4.32;;;18.10;99.90;;;;;;5084986;28;20023;-37
2022/06/13 05:22:44;;;;;;;7.00;4.20;;;18.20;99.90;;;;;;5082446;28;20016;-38
2022/06/13 05:25:29;;;;;;;4.20;3.80;;;18.00;99.90;;;;;;5083162;28;20553;-39
2022/06/13 05:27:54;;;;;;;6.97;4.10;;;17.90;99.90;;;;;;5079854;28;20029;-37
2022/06/13 05:30:21;;;;;;;4.88;4.38;;;17.70;99.90;;;;;;5085662;27;20035;-38
2022/06/13 05:32:47;;;;;;;4.78;4.28;;;17.70;99.90;;;;;;5080922;28;20028;-39
2022/06/13 05:35:22;;;;;;;5.43;4.22;;;17.80;99.90;;;;;;5084509;28;20028;-39
2022/06/13 05:37:49;;;;;;;5.65;4.35;;;18.00;99.90;;;;;;5077876;28;20060;-37
2022/06/13 05:40:17;;;;;;;6.82;4.40;;;18.10;99.90;;;;;;5083215;28;20032;-38
2022/06/13 05:42:44;;;;;;;4.40;4.00;;;18.00;99.90;;;;;;5086876;28;20396;-38
2022/06/13 05:45:18;;;;;;;5.80;4.22;;;18.10;99.90;;;;;;5087707;28;20489;-37
2022/06/13 05:47:46;;;;;;;6.95;4.55;;;18.10;99.90;;;;;;5080809;28;20354;-37
2022/06/13 05:50:18;;;;;;;5.40;4.20;;;18.10;99.90;;;;;;5080375;28;20043;-37
2022/06/13 05:52:44;;;;;;;4.25;3.53;;;18.10;99.90;;;;;;5082563;28;20020;-37
2022/06/13 05:55:11;;;;;;;5.10;4.18;;;18.20;99.90;;;;;;5087061;28;20508;-39
2022/06/13 05:57:38;;;;;;;5.30;3.92;;;18.40;99.90;;;;;;5086462;28;20117;-39
2022/06/13 06:00:07;;;;;;;4.78;4.00;;;18.20;99.90;;;;;;5085764;28;20427;-37
2022/06/13 06:02:33;;;;;;;5.75;3.75;;;18.20;99.90;;;;;;5085721;28;20042;-39
2022/06/13 06:04:58;;;;;;;5.80;3.28;;;18.30;99.90;;;;;;5087271;28;20028;-37
2022/06/13 06:07:25;;;;;;;5.07;3.90;;;18.30;99.90;;;;;;5082765;28;20029;-37
2022/06/13 06:09:51;;;;;;;4.72;3.42;;;18.20;99.90;;;;;;5082986;28;20027;-38
2022/06/13 06:12:16;;;;;;;6.25;3.28;;;18.10;99.90;;;;;;5078421;28;20035;-34
2022/06/13 06:14:43;;;;;;;3.63;3.03;;;18.10;99.90;;;;;;5081841;28;20085;-38
2022/06/13 06:17:08;;;;;;;3.17;2.88;;;17.90;99.90;;;;;;5082092;28;20028;-35
2022/06/13 06:19:34;;;;;;;3.75;2.95;;;17.70;99.90;;;;;;5087681;28;20102;-38
2022/06/13 06:22:00;;;;;;;4.28;2.58;;;17.70;99.90;;;;;;5089880;28;20047;-36
2022/06/13 06:24:25;;;;;;;3.97;2.80;;;17.70;99.90;;;;;;5086790;28;20031;-38
2022/06/13 06:26:51;;;;;;;4.22;2.65;;;17.80;99.90;;;;;;5079167;28;20508;-34
2022/06/13 06:29:17;;;;;;;4.95;2.83;;;17.90;99.90;;;;;;5085540;28;20066;-38
2022/06/13 06:31:43;;;;;;;3.25;2.55;;;18.00;99.90;;;;;;5082803;27;20040;-37
2022/06/13 06:34:08;;;;;;;2.90;1.83;;;17.90;99.90;;;;;;5082868;28;20021;-36
2022/06/13 06:36:34;;;;;;;2.22;1.88;;;17.90;99.90;;;;;;5079916;28;20034;-36
2022/06/13 06:38:59;;;;;;;3.05;2.22;;;18.10;99.90;;;;;;5085698;28;20052;-37
2022/06/13 06:41:25;;;;;;;5.68;2.08;;;18.30;99.90;;;;;;5082542;28;20077;-34
2022/06/13 06:43:51;;;;;;;2.78;1.95;;;18.10;99.90;;;;;;5077525;28;20032;-36
2022/06/13 06:46:16;;;;;;;6.13;2.50;;;18.20;99.90;;;;;;5075612;28;20028;-37
2022/06/13 06:48:42;;;;;;;2.72;2.45;;;18.10;99.90;;;;;;5079278;28;20016;-35
2022/06/13 06:51:12;;;;;;;3.03;1.90;;;18.20;99.90;;;;;;5078618;28;21835;-38
2022/06/13 07:01:52;;;;;;;3.20;2.28;;;18.00;99.90;;;;;;5082812;28;20030;-36
2022/06/13 07:04:18;;;;;;;3.42;2.90;;;18.00;99.90;;;;;;5084180;28;20544;-34
2022/06/13 07:06:43;;;;;;;3.13;2.22;;;18.40;99.90;;;;;;5084372;28;20051;-36
2022/06/13 07:09:09;;;;;;;5.80;2.63;;;18.70;99.90;;;;;;5083812;28;20753;-38
2022/06/13 07:11:54;;;;;;;2.88;2.15;;;18.70;99.90;;;;;;5079923;28;20032;-38
2022/06/13 07:14:35;;;;;;;5.28;2.72;;;18.60;99.90;;;;;;5083801;28;20055;-35
2022/06/13 07:17:04;;;;;;;5.80;2.85;;;18.70;99.90;;;;;;5082879;28;20081;-39
2022/06/13 07:19:30;;;;;;;3.00;2.10;;;18.70;99.90;;;;;;5084054;28;20024;-39
2022/06/13 07:21:56;;;;;;;4.65;2.40;;;18.70;99.90;;;;;;5074140;28;20742;-35
2022/06/13 07:24:22;;;;;;;6.25;2.50;;;18.60;99.90;;;;;;5080849;28;20078;-39
2022/06/13 07:26:49;;;;;;;4.30;2.33;;;18.60;99.90;;;;;;5077074;28;20036;-36
2022/06/13 07:29:16;;;;;;;3.15;2.20;;;18.60;99.90;;;;;;5078808;28;20020;-38
2022/06/13 07:32:00;;;;;;;3.33;2.33;;;18.50;99.90;;;;;;5078568;28;20044;-37
2022/06/13 07:34:28;;;;;;;2.90;2.15;;;18.60;99.90;;;;;;5075410;28;20028;-38
2022/06/13 07:36:56;;;;;;;3.20;2.30;;;18.60;99.90;;;;;;5078362;28;20107;-39
2022/06/13 07:39:22;;;;;;;4.57;2.40;;;18.50;99.90;;;;;;5077773;28;20389;-38
2022/06/13 07:41:48;;;;;;;1.50;1.40;;;18.50;99.90;;;;;;5077087;28;20031;-38
2022/06/13 07:44:22;;;;;;;2.42;1.90;;;18.10;99.90;;;;;;5077276;28;20063;-38
2022/06/13 07:46:50;;;;;;;3.22;2.38;;;18.30;99.90;;;;;;5076507;28;20020;-36
2022/06/13 07:49:16;;;;;;;3.10;2.05;;;18.60;99.90;;;;;;5082636;28;20115;-38
2022/06/13 07:51:42;;;;;;;2.40;2.20;;;18.90;99.90;;;;;;5081921;28;20503;-37
2022/06/13 07:54:08;;;;;;;5.55;2.17;;;19.30;99.90;;;;;;5081443;28;20062;-39
2022/06/13 07:56:34;;;;;;;4.90;3.00;;;19.40;99.90;;;;;;5078492;28;20113;-39
2022/06/13 07:59:01;;;;;;;3.20;2.65;;;19.60;99.90;;;;;;5076444;28;20089;-39
2022/06/13 08:01:27;;;;;;;5.65;2.55;;;19.60;99.90;;;;;;5081418;27;20121;-37
2022/06/13 08:03:54;;;;;;;5.07;2.45;;;19.70;99.90;;;;;;5079825;28;20055;-38
2022/06/13 08:06:20;;;;;;;3.65;2.28;;;19.40;99.90;;;;;;5077506;28;20500;-39
2022/06/13 08:08:46;;;;;;;4.65;2.33;;;18.70;99.90;;;;;;5075404;28;20028;-38
2022/06/13 08:11:15;;;;;;;3.88;2.85;;;18.60;99.90;;;;;;5074131;28;20050;-38
2022/06/13 08:13:41;;;;;;;2.97;2.30;;;18.80;99.90;;;;;;5076759;28;20024;-39
2022/06/13 08:16:08;;;;;;;8.80;3.05;;;18.90;99.90;;;;;;5075789;28;20020;-35
2022/06/13 08:18:35;;;;;;;3.50;2.55;;;18.70;99.90;;;;;;5078510;28;20039;-38
2022/06/13 08:21:01;;;;;;;3.50;2.63;;;18.80;99.90;;;;;;5076325;28;20028;-39
2022/06/13 08:23:27;;;;;;;5.15;2.47;;;19.00;99.90;;;;;;5080184;28;20028;-37
2022/06/13 08:25:52;;;;;;;3.55;2.33;;;19.20;99.90;;;;;;5079011;28;20426;-36
2022/06/13 08:28:18;;;;;;;6.82;3.30;;;19.00;99.90;;;;;;5080164;28;20027;-37
2022/06/13 08:30:56;;;;;;;5.05;2.88;;;19.40;99.90;;;;;;5074952;28;20069;-38
2022/06/13 08:33:22;;;;;;;;;;;19.50;99.90;;;;;;5079110;28;20028;-36
2022/06/13 08:35:49;;;;;;;2.45;2.25;;;19.90;99.90;;;;;;5081328;28;20357;-38
2022/06/13 08:38:14;;;;;;;4.80;2.60;;;19.80;99.70;;;;;;5078070;28;20758;-39
2022/06/13 08:40:49;;;;;;;8.43;2.80;;;20.00;99.90;;;;;;5078919;28;20032;-38
2022/06/13 08:43:51;;;;;;;3.63;2.70;;;20.30;99.90;;;;;;5080257;28;20085;-37
2022/06/13 08:46:44;;;;;;;3.70;2.30;;;20.20;99.50;;;;;;5079302;28;20792;-38
2022/06/13 08:49:19;;;;;;;4.15;2.70;;;19.40;99.90;;;;;;5077362;28;20098;-36
2022/06/13 08:51:48;;;;;;;3.67;2.45;;;19.50;99.90;;;;;;5079759;28;20043;-38
2022/06/13 08:54:26;;;;;;;4.20;2.92;;;19.40;98.90;;;;;;5080578;28;20019;-35
2022/06/13 08:56:52;;;;;;;4.72;2.40;;;19.50;99.90;;;;;;5080865;28;20075;-37
2022/06/13 08:59:38;;;;;;;4.40;1.92;;;19.90;99.90;;;;;;5078548;28;20074;-37
2022/06/13 09:02:54;;;;;;;4.43;2.33;;;20.30;95.60;;;;;;5078180;27;20024;-36
2022/06/13 09:05:35;;;;;;;3.05;1.73;;;20.80;95.90;;;;;;5049802;28;20031;-37
2022/06/13 09:08:22;;;;;;;4.10;2.15;;;20.80;92.90;;;;;;5052920;28;20051;-39
2022/06/13 09:11:00;;;;;;;;;;;20.50;94.80;;;;;;5070215;28;20098;-35
2022/06/13 09:13:39;;;;;;;3.47;2.10;;;20.80;92.80;;;;;;5078871;28;19924;-39
2022/06/13 09:16:10;;;;;;;3.38;1.98;;;21.20;91.10;;;;;;5074659;28;20070;-38
2022/06/13 09:19:12;;;;;;;3.75;2.30;;;21.00;92.10;;;;;;5080782;28;20028;-37
2022/06/13 09:21:45;;;;;;;3.35;2.35;;;20.60;90.90;;;;;;5072714;28;20039;-39
2022/06/13 09:24:13;;;;;;;4.30;1.95;;;20.40;92.80;;;;;;5081019;28;20029;-38
2022/06/13 09:26:52;;;;;;;3.40;2.10;;;21.00;95.40;;;;;;5077924;28;20044;-38
2022/06/13 09:29:36;;;;;;;5.32;2.45;;;21.30;89.10;;;;;;5079948;28;22473;-37
2022/06/13 09:32:16;;;;;;;3.95;2.30;;;20.90;92.30;;;;;;5079108;28;20029;-37
2022/06/13 09:34:48;;;;;;;2.45;1.90;;;21.00;93.70;;;;;;5076444;28;20033;-38
2022/06/13 09:37:21;;;;;;;5.43;2.30;;;20.50;88.50;;;;;;5082142;28;20895;-38
2022/06/13 09:39:47;;;;;;;4.25;2.20;;;20.20;93.00;;;;;;5080305;28;20044;-37
2022/06/13 09:42:56;;;;;;;5.38;2.67;;;20.30;93.70;;;;;;5084934;28;20042;-38
2022/06/13 09:45:27;;;;;;;3.22;1.92;;;20.40;93.00;;;;;;5064985;28;20448;-37
2022/06/13 09:48:07;;;;;;;3.63;1.80;;;20.20;93.30;;;;;;5082988;28;20028;-36
2022/06/13 09:50:59;;;;;;;4.07;3.05;;;20.00;86.30;;;;;;5081349;28;20039;-37
2022/06/13 09:53:42;;;;;;;5.50;2.30;;;20.40;92.70;;;;;;5086320;28;20736;-37
2022/06/13 09:56:33;;;;;;;2.78;1.90;;;20.60;89.50;;;;;;5079985;28;21850;-37
2022/06/13 09:59:04;;;;;;;2.70;2.00;;;20.50;89.00;;;;;;5085975;28;20056;-38
2022/06/13 10:01:43;;;;;;;4.10;2.30;;;20.20;89.40;;;;;;5082543;27;20036;-37
2022/06/13 10:04:33;;;;;;;2.83;1.90;;;20.80;91.90;;;;;;5083961;28;20031;-38
2022/06/13 10:07:15;;;;;;;2.30;2.10;;;20.90;84.30;;;;;;5086642;28;20077;-38
2022/06/13 10:09:43;;;;;;;3.28;2.22;;;20.70;80.40;;;;;;5075536;28;20564;-35
2022/06/13 10:12:09;;;;;;;4.63;2.08;;;20.80;88.80;;;;;;5080472;28;20028;-38
2022/06/13 10:15:05;;;;;;;2.72;1.83;;;21.10;83.20;;;;;;5079583;28;20043;-39
2022/06/13 10:17:52;;;;;;;4.57;2.00;;;20.90;74.60;;;;;;5078862;28;20092;-38
2022/06/13 10:20:35;;;;;;;3.50;2.20;;;20.50;86.70;;;;;;5080520;28;20055;-39
2022/06/13 10:23:47;;;;;;;8.70;1.80;;;21.00;85.50;;;;;;5078260;28;22151;-38
2022/06/13 10:26:31;;;;;;;6.20;2.20;;;21.10;74.40;;;;;;5080761;28;20040;-38
2022/06/13 10:29:18;;;;;;;3.80;1.90;;;21.10;75.40;;;;;;5079914;28;20039;-38
2022/06/13 10:32:26;;;;;;;3.63;2.38;;;21.00;73.00;;;;;;5081824;27;20071;-38
2022/06/13 10:35:12;;;;;;;5.63;2.00;;;20.80;79.60;;;;;;5085846;28;20122;-38
2022/06/13 10:37:56;;;;;;;3.25;1.33;;;21.20;83.30;;;;;;5085466;28;20382;-39
2022/06/13 10:40:24;;;;;;;5.18;2.05;;;21.10;62.50;;;;;;5078860;28;20024;-36
2022/06/13 10:42:50;;;;;;;4.20;1.80;;;21.20;70.60;;;;;;5084220;28;20111;-37
2022/06/13 10:45:17;;;;;;;3.97;2.20;;;21.20;72.70;;;;;;5084171;28;20107;-37
2022/06/13 10:47:52;;;;;;;2.47;2.13;;;21.10;70.00;;;;;;5084494;28;20032;-35
2022/06/13 10:50:40;;;;;;;4.30;2.10;;;20.70;73.80;;;;;;5084231;28;20114;-38
2022/06/13 10:53:12;;;;;;;4.93;2.20;;;20.60;79.40;;;;;;5084537;28;20032;-38
2022/06/13 10:55:41;;;;;;;2.67;1.90;;;20.80;81.40;;;;;;5084520;28;20055;-36
2022/06/13 10:58:14;;;;;;;4.45;2.38;;;20.60;74.30;;;;;;5076151;28;20410;-39
2022/06/13 11:00:42;;;;;;;3.75;2.13;;;20.50;74.40;;;;;;5082647;27;20497;-38
2022/06/13 11:03:09;;;;;;;;;;;20.10;72.20;;;;;;5078793;28;20023;-38
2022/06/13 11:05:49;;;;;;;2.30;1.88;;;20.00;71.30;;;;;;5077204;28;19955;-39
2022/06/13 11:08:15;;;;;;;2.15;1.95;;;20.20;78.10;;;;;;5080698;28;20155;-38
2022/06/13 11:10:50;;;;;;;4.22;1.98;;;20.40;74.10;;;;;;5076513;28;20093;-39
2022/06/13 11:13:34;;;;;;;2.83;2.10;;;20.60;77.90;;;;;;5077662;28;20032;-37
2022/06/13 11:24:45;;;;;;;3.80;1.80;;;20.90;69.50;;;;;;5086271;28;20141;-36
2022/06/13 11:27:41;;;;;;;3.65;1.63;;;21.20;67.20;;;;;;5082446;28;20036;-37
2022/06/13 11:30:30;;;;;;;3.60;1.63;;;21.30;59.20;;;;;;5082297;28;20028;-38
2022/06/13 11:33:04;;;;;;;1.25;1.17;;;21.20;69.80;;;;;;5077539;28;20040;-37
2022/06/13 11:35:46;;;;;;;2.78;1.80;;;21.20;60.50;;;;;;5084641;28;20024;-38
2022/06/13 11:38:23;;;;;;;8.85;1.83;;;21.20;59.50;;;;;;5079584;28;20047;-37
2022/06/13 11:41:16;;;;;;;3.70;1.88;;;21.00;57.30;;;;;;5083280;28;20039;-37
2022/06/13 11:43:51;;;;;;;3.42;1.60;;;20.90;56.10;;;;;;5079428;28;20032;-38
2022/06/13 11:46:30;;;;;;;2.63;1.23;;;21.10;59.50;;;;;;5075154;28;20047;-38
2022/06/13 11:49:01;;;;;;;1.95;1.42;;;21.00;51.90;;;;;;5074754;28;20136;-37
2022/06/13 11:51:29;;;;;;;3.30;1.33;;;20.80;51.00;;;;;;5077754;28;20138;-39
2022/06/13 11:53:58;;;;;;;5.88;1.90;;;20.90;52.40;;;;;;5076028;28;20029;-38
2022/06/13 11:56:25;;;;;;;2.88;1.80;;;20.60;48.60;;;;;;5072451;28;20028;-38
2022/06/13 11:58:55;;;;;;;1.48;1.38;;;20.60;51.00;;;;;;5074552;28;20131;-36
2022/06/13 12:01:37;;;;;;;3.28;1.33;;;20.80;57.70;;;;;;5083510;27;20028;-35
2022/06/13 12:04:11;;;;;;;1.45;1.38;;;21.00;57.30;;;;;;5081983;28;20032;-39
2022/06/13 12:06:44;;;;;;;6.38;1.50;;;20.90;53.00;;;;;;5084071;28;20098;-36
2022/06/13 12:09:15;;;;;;;1.80;1.45;;;20.80;53.10;;;;;;5078748;28;20028;-37
2022/06/13 12:11:48;;;;;;;4.22;1.88;;;21.10;54.70;;;;;;5081904;28;20389;-38
2022/06/13 12:14:14;;;;;;;1.90;1.45;;;20.90;51.80;;;;;;5078229;28;20024;-39
2022/06/13 12:16:59;;;;;;;3.20;2.00;;;20.90;52.80;;;;;;5077065;28;20017;-37
2022/06/13 12:19:40;;;;;;;2.45;1.48;;;20.90;52.10;;;;;;5079117;28;20036;-38
2022/06/13 12:22:18;;;;;;;4.47;1.90;;;21.00;52.70;;;;;;5082618;28;22115;-38
2022/06/13 12:25:19;;;;;;;3.55;1.17;;;21.20;55.20;;;;;;5081386;28;20021;-37
2022/06/13 12:28:14;;;;;;;5.88;1.52;;;21.10;52.00;;;;;;5058176;28;20040;-38
2022/06/13 12:30:49;;;;;;;5.43;2.28;;;21.00;52.50;;;;;;5076284;27;20738;-36
2022/06/13 12:33:27;;;;;;;3.67;1.83;;;21.00;54.00;;;;;;5075755;28;20112;-38
2022/06/13 12:36:11;;;;;;;3.50;1.80;;;21.20;55.30;;;;;;5076198;28;20025;-38
2022/06/13 12:39:09;;;;;;;6.15;1.85;;;21.30;56.00;;;;;;5073854;28;20035;-36
2022/06/13 12:41:49;;;;;;;3.42;1.80;;;21.20;55.40;;;;;;5080182;28;20028;-36
2022/06/13 12:44:18;;;;;;;3.10;1.77;;;21.00;58.90;;;;;;5080334;28;20075;-37
2022/06/13 12:47:28;;;;;;;5.53;2.10;;;21.10;62.80;;;;;;5079930;28;20017;-37
2022/06/13 12:49:56;;;;;;;1.83;1.67;;;21.20;54.80;;;;;;5069530;28;20400;-39
2022/06/13 12:52:32;;;;;;;3.97;1.80;;;21.10;55.80;;;;;;5086336;28;20026;-38
2022/06/13 12:55:05;;;;;;;4.82;1.63;;;21.00;55.00;;;;;;5083003;28;20052;-36
2022/06/13 12:57:54;;;;;;;3.50;1.85;;;21.10;55.30;;;;;;5085272;28;20032;-37
2022/06/13 13:00:35;;;;;;;2.33;1.60;;;21.10;54.70;;;;;;5084037;28;20024;-39
2022/06/13 13:03:31;;;;;;;2.35;1.77;;;21.30;55.00;;;;;;5089812;28;20104;-35
2022/06/13 13:06:04;;;;;;;3.13;1.50;;;21.30;53.50;;;;;;5082966;28;20049;-37
2022/06/13 13:08:54;;;;;;;1.70;1.60;;;21.20;49.60;;;;;;5084777;28;20028;-37
2022/06/13 13:11:23;;;;;;;3.53;1.33;;;21.10;51.00;;;;;;5082115;28;20095;-37
2022/06/13 13:14:06;;;;;;;2.05;1.35;;;21.10;55.20;;;;;;5083673;28;20042;-38
2022/06/13 13:16:41;;;;;;;4.95;1.95;;;21.10;51.40;;;;;;5078674;28;20020;-37
2022/06/13 13:19:42;;;;;;;1.85;1.40;;;20.90;50.70;;;;;;5079746;28;20384;-36
2022/06/13 13:22:36;;;;;;;2.00;1.60;;;20.90;54.70;;;;;;5073687;28;20074;-38
2022/06/13 13:25:04;;;;;;;3.50;1.50;;;20.90;52.10;;;;;;5077446;28;20106;-36
2022/06/13 13:28:02;;;;;;;3.25;1.58;;;21.00;53.20;;;;;;5090560;28;20114;-35
2022/06/13 13:30:37;;;;;;;1.38;1.27;;;21.10;53.60;;;;;;5061224;28;20095;-37
2022/06/13 13:33:46;;;;;;;3.85;1.52;;;21.00;53.00;;;;;;5083777;28;20039;-36
2022/06/13 13:36:35;;;;;;;2.15;1.60;;;21.00;50.80;;;;;;5082837;28;20089;-35
2022/06/13 13:39:10;;;;;;;4.50;1.63;;;21.00;50.40;;;;;;5085023;28;20024;-38
2022/06/13 13:41:48;;;;;;;2.20;1.33;;;21.00;50.40;;;;;;5078597;28;20056;-38
2022/06/13 13:44:22;;;;;;;6.78;1.85;;;21.10;50.30;;;;;;5080757;28;20023;-36
2022/06/13 13:47:09;;;;;;;1.60;1.27;;;21.10;49.90;;;;;;5085571;28;20028;-39
2022/06/13 13:49:42;;;;;;;1.50;1.40;;;21.10;51.10;;;;;;5081655;28;20036;-37
2022/06/13 13:52:31;;;;;;;1.42;1.33;;;21.10;54.30;;;;;;5085870;28;20081;-39